createdAt,value
2023-01-04T00:02:18.199Z,101981.94
2023-01-04T00:04:48.474Z,101978.38
2023-01-04T00:07:18.710Z,101980.25
2023-01-04T00:09:48.703Z,101974.34
2023-01-04T00:12:18.689Z,101959.22
2023-01-04T00:14:51.282Z,101956.91
2023-01-04T00:17:21.295Z,101950.31
2023-01-04T00:19:51.378Z,101943.91
2023-01-04T00:22:21.336Z,101944.69
2023-01-04T00:24:51.258Z,101941.38
2023-01-04T00:27:21.224Z,101946.38
2023-01-04T00:29:53.864Z,101936.16
2023-01-04T00:32:24.248Z,101933.56
2023-01-04T00:34:54.253Z,101931.16
2023-01-04T00:37:24.350Z,101926.72
2023-01-04T00:39:54.412Z,101919.97
2023-01-04T00:42:24.379Z,101904.53
2023-01-04T00:44:56.949Z,101901.03
2023-01-04T00:47:26.911Z,101900.78
2023-01-04T00:49:56.821Z,101894.03
2023-01-04T00:52:26.883Z,101883.38
2023-01-04T00:54:56.871Z,101883.41
2023-01-04T00:57:26.784Z,101884.16
2023-01-04T00:59:59.444Z,101878.25
2023-01-04T01:02:29.669Z,101880.66
2023-01-04T01:04:59.785Z,101864.81
2023-01-04T01:07:29.809Z,101851.69
2023-01-04T01:10:00.820Z,101848.81
2023-01-04T01:12:30.933Z,101835.41
2023-01-04T01:15:03.593Z,101837.22
2023-01-04T01:17:39.719Z,101848.09
2023-01-04T01:20:11.160Z,101844.50
2023-01-04T01:22:41.103Z,101841.41
2023-01-04T01:25:11.624Z,101839.00
2023-01-04T01:27:41.607Z,101843.84
2023-01-04T01:30:15.445Z,101838.00
2023-01-04T01:32:45.519Z,101840.34
2023-01-04T01:35:15.467Z,101836.50
2023-01-04T01:37:45.462Z,101840.41
2023-01-04T01:40:15.445Z,101832.56
2023-01-04T01:42:45.573Z,101844.78
2023-01-04T01:45:30.942Z,101841.59
2023-01-04T01:48:08.564Z,101846.56
2023-01-04T01:50:44.417Z,101846.22
2023-01-04T01:53:15.322Z,101846.81
2023-01-04T01:55:49.402Z,101838.50
2023-01-04T01:58:26.110Z,101842.16
2023-01-04T02:00:58.667Z,101852.94
2023-01-04T02:03:35.966Z,101848.22
2023-01-04T02:06:08.478Z,101837.66
2023-01-04T02:08:40.364Z,101838.31
2023-01-04T02:11:10.720Z,101833.28
2023-01-04T02:13:55.811Z,101831.38
2023-01-04T02:16:39.620Z,101824.16
2023-01-04T02:19:24.701Z,101818.75
2023-01-04T02:22:12.457Z,101804.38
2023-01-04T02:25:01.295Z,101801.72
2023-01-04T02:27:45.742Z,101796.72
2023-01-04T02:30:42.938Z,101783.66
2023-01-04T02:33:27.460Z,101771.13
2023-01-04T02:36:05.262Z,101752.31
2023-01-04T02:38:49.171Z,101751.25
2023-01-04T02:41:27.700Z,101736.00
2023-01-04T02:44:16.573Z,101727.34
2023-01-04T02:46:51.638Z,101725.72
2023-01-04T02:49:36.652Z,101717.09
2023-01-04T02:52:06.673Z,101702.72
2023-01-04T02:54:37.094Z,101694.81
2023-01-04T02:57:19.550Z,101694.19
2023-01-04T03:00:09.736Z,101684.94
2023-01-04T03:03:13.773Z,101688.69
2023-01-04T03:06:11.998Z,101694.81
2023-01-04T03:08:47.198Z,101695.66
2023-01-04T03:11:31.486Z,101691.81
2023-01-04T03:14:32.623Z,101700.00
2023-01-04T03:16:58.626Z,101678.13
2023-01-04T03:19:42.569Z,101676.00
2023-01-04T03:22:30.547Z,101677.09
2023-01-04T03:25:14.735Z,101669.38
2023-01-04T03:27:59.256Z,101667.00
2023-01-04T03:30:45.487Z,101663.28
2023-01-04T03:33:28.548Z,101657.44
2023-01-04T03:36:06.387Z,101648.41
2023-01-04T03:38:58.464Z,101643.72
2023-01-04T03:41:45.968Z,101637.28
2023-01-04T03:44:35.701Z,101639.63
2023-01-04T03:47:23.818Z,101615.09
2023-01-04T03:49:59.642Z,101614.63
2023-01-04T03:52:33.864Z,101607.28
2023-01-04T03:55:09.324Z,101593.88
2023-01-04T03:57:39.798Z,101580.63
2023-01-04T04:00:13.758Z,101586.38
2023-01-04T04:02:45.116Z,101585.09
2023-01-04T04:05:32.534Z,101575.59
2023-01-04T04:08:14.913Z,101573.22
2023-01-04T04:10:47.541Z,101563.22
2023-01-04T04:13:17.662Z,101557.88
2023-01-04T04:15:47.585Z,101559.66
2023-01-04T04:18:17.783Z,101567.06
2023-01-04T04:20:47.842Z,101556.72
2023-01-04T04:23:17.782Z,101541.25
2023-01-04T04:25:50.423Z,101546.59
2023-01-04T04:28:20.411Z,101529.53
2023-01-04T04:30:52.201Z,101528.03
2023-01-04T04:33:22.220Z,101519.69
2023-01-04T04:35:54.265Z,101518.34
2023-01-04T04:38:24.564Z,101519.41
2023-01-04T04:41:09.585Z,101506.38
2023-01-04T04:43:39.592Z,101501.50
2023-01-04T04:46:09.746Z,101496.91
2023-01-04T04:48:39.704Z,101483.03
2023-01-04T04:51:09.677Z,101479.06
2023-01-04T04:53:39.635Z,101471.88
2023-01-04T04:56:13.343Z,101462.16
2023-01-04T04:58:43.976Z,101457.69
2023-01-04T05:01:14.274Z,101454.97
2023-01-04T05:03:44.643Z,101451.25
2023-01-04T05:06:14.669Z,101446.72
2023-01-04T05:08:44.686Z,101441.47
2023-01-04T05:11:37.486Z,101436.25
2023-01-04T05:14:04.964Z,101428.06
2023-01-04T05:16:34.931Z,101411.63
2023-01-04T05:19:05.053Z,101411.44
2023-01-04T05:21:35.124Z,101403.38
2023-01-04T05:24:05.088Z,101407.03
2023-01-04T05:26:37.589Z,101389.53
2023-01-04T05:29:27.755Z,101376.66
2023-01-04T05:31:55.204Z,101383.78
2023-01-04T05:34:35.537Z,101370.56
2023-01-04T05:37:05.435Z,101362.44
2023-01-04T05:39:35.320Z,101354.69
2023-01-04T05:42:20.258Z,101348.84
2023-01-04T05:44:50.261Z,101347.75
2023-01-04T05:47:20.298Z,101331.84
2023-01-04T05:49:51.230Z,101328.75
2023-01-04T05:52:21.910Z,101319.03
2023-01-04T05:54:57.945Z,101319.84
2023-01-04T05:57:30.620Z,101309.47
2023-01-04T06:00:00.595Z,101306.28
2023-01-04T06:02:33.208Z,101299.13
2023-01-04T06:05:03.260Z,101302.72
2023-01-04T06:07:33.349Z,101293.63
2023-01-04T06:10:03.255Z,101289.41
2023-01-04T06:12:35.997Z,101289.53
2023-01-04T06:15:06.383Z,101278.66
2023-01-04T06:17:36.741Z,101261.88
2023-01-04T06:20:09.413Z,101274.47
2023-01-04T06:22:40.757Z,101270.38
2023-01-04T06:25:12.259Z,101251.38
2023-01-04T06:27:44.845Z,101254.13
2023-01-04T06:30:14.945Z,101251.09
2023-01-04T06:32:44.880Z,101244.88
2023-01-04T06:35:14.880Z,101239.50
2023-01-04T06:37:44.755Z,101232.09
2023-01-04T06:40:15.134Z,101228.34
2023-01-04T06:42:47.846Z,101215.56
2023-01-04T06:45:18.880Z,101209.91
2023-01-04T06:47:48.905Z,101214.50
2023-01-04T06:50:19.105Z,101200.47
2023-01-04T06:52:49.094Z,101198.56
2023-01-04T06:55:19.276Z,101193.63
2023-01-04T06:57:56.301Z,101199.28
2023-01-04T07:00:29.512Z,101181.41
2023-01-04T07:03:13.829Z,101182.03
2023-01-04T07:05:45.585Z,101180.22
2023-01-04T07:08:17.042Z,101178.53
2023-01-04T07:10:47.034Z,101176.41
2023-01-04T07:13:19.988Z,101174.94
2023-01-04T07:15:49.976Z,101163.88
2023-01-04T07:18:19.965Z,101150.38
2023-01-04T07:20:52.907Z,101143.53
2023-01-04T07:23:23.140Z,101157.28
2023-01-04T07:25:53.158Z,101128.91
2023-01-04T07:28:38.225Z,101131.06
2023-01-04T07:31:09.502Z,101129.34
2023-01-04T07:33:39.565Z,101125.19
2023-01-04T07:36:10.599Z,101123.91
2023-01-04T07:38:40.574Z,101121.47
2023-01-04T07:41:10.593Z,101122.84
2023-01-04T07:43:43.185Z,101114.06
2023-01-04T07:46:13.181Z,101114.25
2023-01-04T07:48:43.157Z,101108.84
2023-01-04T07:51:13.077Z,101101.34
2023-01-04T07:53:43.070Z,101105.06
2023-01-04T07:56:18.590Z,101092.81
2023-01-04T07:58:56.961Z,101086.34
2023-01-04T08:01:28.559Z,101075.34
2023-01-04T08:03:58.834Z,101076.13
2023-01-04T08:06:28.804Z,101079.53
2023-01-04T08:08:58.760Z,101069.63
2023-01-04T08:11:28.935Z,101050.91
2023-01-04T08:14:01.743Z,101052.13
2023-01-04T08:16:34.160Z,101046.47
2023-01-04T08:19:06.475Z,101041.44
2023-01-04T08:21:38.225Z,101028.66
2023-01-04T08:24:09.610Z,101042.88
2023-01-04T08:26:39.590Z,101023.25
2023-01-04T08:29:12.827Z,101020.47
2023-01-04T08:31:43.944Z,101027.91
2023-01-04T08:34:14.001Z,101016.09
2023-01-04T08:36:50.695Z,101010.25
2023-01-04T08:39:21.840Z,101035.25
2023-01-04T08:42:02.568Z,101021.00
2023-01-04T08:44:40.322Z,101016.81
2023-01-04T08:47:19.897Z,101019.31
2023-01-04T08:49:49.812Z,101006.97
2023-01-04T08:52:19.783Z,101008.78
2023-01-04T08:54:49.726Z,100981.28
2023-01-04T08:57:19.829Z,100981.28
2023-01-04T08:59:52.324Z,100990.06
2023-01-04T09:02:25.484Z,100987.94
2023-01-04T09:04:59.620Z,100996.31
2023-01-04T09:07:32.267Z,100988.84
2023-01-04T09:10:03.162Z,100996.75
2023-01-04T09:12:33.169Z,100999.25
2023-01-04T09:15:06.824Z,100983.31
2023-01-04T09:17:46.466Z,100986.78
2023-01-04T09:20:26.740Z,100999.03
2023-01-04T09:22:56.680Z,100984.00
2023-01-04T09:25:26.630Z,100979.16
2023-01-04T09:27:56.622Z,100978.84
2023-01-04T09:30:31.792Z,100964.06
2023-01-04T09:33:01.751Z,100971.66
2023-01-04T09:35:31.757Z,100963.69
2023-01-04T09:38:01.849Z,100952.28
2023-01-04T09:40:37.243Z,100953.47
2023-01-04T09:43:21.068Z,100933.34
2023-01-04T09:46:00.222Z,100938.91
2023-01-04T09:48:33.956Z,100930.44
2023-01-04T09:51:07.836Z,100923.91
2023-01-04T09:53:45.443Z,100919.47
2023-01-04T09:56:24.349Z,100904.56
2023-01-04T09:58:55.656Z,100902.38
2023-01-04T10:01:31.991Z,100898.25
2023-01-04T10:04:08.232Z,100900.31
2023-01-04T10:06:39.865Z,100886.00
2023-01-04T10:09:15.321Z,100884.72
2023-01-04T10:12:12.749Z,100885.16
2023-01-04T10:15:04.886Z,100871.31
2023-01-04T10:21:29.532Z,100855.91
2023-01-04T10:24:13.928Z,100849.75
2023-01-04T10:26:49.473Z,100831.44
2023-01-04T10:29:41.721Z,100837.03
2023-01-04T10:32:20.567Z,100838.84
2023-01-04T10:35:22.261Z,100827.38
2023-01-04T10:37:55.697Z,100816.31
2023-01-04T10:40:26.671Z,100810.78
2023-01-04T10:43:07.302Z,100807.88
2023-01-04T10:45:46.633Z,100795.72
2023-01-04T10:48:26.634Z,100805.59
2023-01-04T10:51:08.957Z,100794.88
2023-01-04T10:53:44.736Z,100783.19
2023-01-04T10:56:26.155Z,100798.03
2023-01-04T10:59:03.317Z,100782.41
2023-01-04T11:01:40.772Z,100780.97
2023-01-04T11:04:18.878Z,100764.03
2023-01-04T11:06:57.876Z,100761.66
2023-01-04T11:09:35.866Z,100752.97
2023-01-04T11:12:13.503Z,100752.97
2023-01-04T11:14:43.542Z,100746.31
2023-01-04T11:17:15.628Z,100735.34
2023-01-04T11:19:48.619Z,100727.97
2023-01-04T11:22:25.928Z,100740.75
2023-01-04T11:27:55.777Z,100719.38
2023-01-04T11:30:27.631Z,100715.59
2023-01-04T11:33:03.425Z,100712.81
2023-01-04T11:35:45.615Z,100705.75
2023-01-04T11:38:22.068Z,100705.47
2023-01-04T11:41:02.161Z,100702.81
2023-01-04T11:43:33.280Z,100694.38
2023-01-04T11:46:06.459Z,100706.88
2023-01-04T11:48:42.634Z,100697.16
2023-01-04T11:51:36.699Z,100688.13
2023-01-04T11:54:20.424Z,100693.81
2023-01-04T11:57:11.724Z,100689.94
2023-01-04T11:59:42.258Z,100675.72
2023-01-04T12:05:29.633Z,100655.75
2023-01-04T12:08:01.447Z,100652.44
2023-01-04T12:10:34.866Z,100650.97
2023-01-04T12:13:05.280Z,100642.75
2023-01-04T12:15:42.535Z,100633.09
2023-01-04T12:18:19.330Z,100629.88
2023-01-04T12:20:49.398Z,100621.78
2023-01-04T12:23:20.536Z,100633.91
2023-01-04T12:25:54.710Z,100625.28
2023-01-04T12:28:36.122Z,100622.31
2023-01-04T12:31:34.014Z,100608.47
2023-01-04T12:34:34.416Z,100613.47
2023-01-04T12:37:06.166Z,100604.28
2023-01-04T12:39:44.950Z,100613.41
2023-01-04T12:42:24.601Z,100589.25
2023-01-04T12:45:12.930Z,100591.19
2023-01-04T12:47:57.071Z,100582.03
2023-01-04T12:50:29.416Z,100576.22
2023-01-04T12:55:58.366Z,100566.16
2023-01-04T12:59:25.335Z,100572.13
2023-01-04T13:02:24.534Z,100561.56
2023-01-04T13:05:33.742Z,100556.22
2023-01-04T13:07:49.813Z,100559.78
2023-01-04T13:10:30.524Z,100544.22
2023-01-04T13:13:36.655Z,100543.22
2023-01-04T13:16:20.943Z,100548.06
2023-01-04T13:18:55.334Z,100531.56
2023-01-04T13:21:32.043Z,100531.44
2023-01-04T13:24:04.570Z,100527.41
2023-01-04T13:26:42.980Z,100511.72
2023-01-04T13:29:19.999Z,100512.75
2023-01-04T13:31:55.873Z,100520.38
2023-01-04T13:34:32.204Z,100525.38
2023-01-04T13:37:11.770Z,100513.84
2023-01-04T13:39:44.308Z,100521.47
2023-01-04T13:42:21.371Z,100532.38
2023-01-04T13:45:21.551Z,100512.38
2023-01-04T13:47:54.483Z,100510.13
2023-01-04T13:50:34.243Z,100509.28
2023-01-04T13:53:08.037Z,100499.19
2023-01-04T13:55:39.951Z,100497.97
2023-01-04T13:58:19.500Z,100509.97
2023-01-04T14:01:18.009Z,100501.97
2023-01-04T14:03:50.881Z,100474.91
2023-01-04T14:06:28.027Z,100485.16
2023-01-04T14:09:10.484Z,100487.28
2023-01-04T14:12:05.766Z,100486.81
2023-01-04T14:14:48.293Z,100479.78
2023-01-04T14:17:25.365Z,100485.81
2023-01-04T14:20:00.231Z,100485.16
2023-01-04T14:22:41.980Z,100483.19
2023-01-04T14:25:49.248Z,100488.63
2023-01-04T14:28:49.639Z,100464.44
2023-01-04T14:31:39.124Z,100482.97
2023-01-04T14:34:17.484Z,100472.78
2023-01-04T14:36:47.932Z,100465.84
2023-01-04T14:39:27.790Z,100459.34
2023-01-04T14:42:00.181Z,100455.81
2023-01-04T14:44:36.360Z,100442.13
2023-01-04T14:47:09.292Z,100460.13
2023-01-04T14:49:39.318Z,100449.59
2023-01-04T14:52:15.270Z,100452.78
2023-01-04T14:54:59.329Z,100456.25
2023-01-04T14:57:29.391Z,100447.97
2023-01-04T14:59:59.576Z,100447.91
2023-01-04T15:02:30.989Z,100445.41
2023-01-04T15:05:01.330Z,100443.03
2023-01-04T15:07:38.038Z,100431.94
2023-01-04T15:10:22.236Z,100434.75
2023-01-04T15:13:28.512Z,100427.13
2023-01-04T15:16:00.997Z,100422.31
2023-01-04T15:18:31.191Z,100416.09
2023-01-04T15:21:01.171Z,100417.22
2023-01-04T15:23:31.365Z,100406.91
2023-01-04T15:26:06.712Z,100406.28
2023-01-04T15:28:36.936Z,100419.28
2023-01-04T15:31:10.518Z,100413.53
2023-01-04T15:33:41.100Z,100409.44
2023-01-04T15:36:21.789Z,100418.00
2023-01-04T15:38:56.882Z,100418.88
2023-01-04T15:41:41.913Z,100408.81
2023-01-04T15:44:12.676Z,100412.97
2023-01-04T15:46:43.039Z,100405.75
2023-01-04T15:49:17.202Z,100412.75
2023-01-04T15:51:48.228Z,100417.72
2023-01-04T15:54:18.564Z,100385.75
2023-01-04T15:56:51.279Z,100384.13
2023-01-04T15:59:21.637Z,100381.69
2023-01-04T16:01:51.800Z,100377.72
2023-01-04T16:04:22.122Z,100361.09
2023-01-04T16:06:52.118Z,100351.78
2023-01-04T16:09:22.132Z,100367.03
2023-01-04T16:12:07.335Z,100356.72
2023-01-04T16:14:37.285Z,100362.53
2023-01-04T16:17:07.222Z,100345.88
2023-01-04T16:19:39.927Z,100373.09
2023-01-04T16:22:10.668Z,100350.06
2023-01-04T16:27:35.621Z,100339.84
2023-01-04T16:30:06.309Z,100345.00
2023-01-04T16:32:37.875Z,100340.22
2023-01-04T16:35:08.329Z,100337.91
2023-01-04T16:37:38.839Z,100325.66
2023-01-04T16:40:10.165Z,100319.13
2023-01-04T16:42:43.574Z,100324.34
2023-01-04T16:45:15.434Z,100320.72
2023-01-04T16:47:46.955Z,100307.75
2023-01-04T16:50:16.973Z,100304.28
2023-01-04T16:52:46.948Z,100298.56
2023-01-04T16:55:23.365Z,100292.50
2023-01-04T16:57:56.545Z,100283.66
2023-01-04T17:00:26.775Z,100313.03
2023-01-04T17:02:56.832Z,100279.63
2023-01-04T17:05:26.814Z,100280.84
2023-01-04T17:07:56.721Z,100265.81
2023-01-04T17:10:29.530Z,100286.44
2023-01-04T17:13:14.428Z,100279.88
2023-01-04T17:15:45.044Z,100285.31
2023-01-04T17:18:17.696Z,100273.09
2023-01-04T17:20:54.521Z,100267.97
2023-01-04T17:23:25.995Z,100256.22
2023-01-04T17:25:56.252Z,100254.06
2023-01-04T17:28:28.907Z,100252.09
2023-01-04T17:30:58.931Z,100253.59
2023-01-04T17:33:28.902Z,100253.97
2023-01-04T17:35:58.848Z,100235.09
2023-01-04T17:38:28.812Z,100225.00
2023-01-04T17:40:58.822Z,100235.41
2023-01-04T17:43:31.459Z,100212.59
2023-01-04T17:46:04.212Z,100219.56
2023-01-04T17:48:34.570Z,100209.78
2023-01-04T17:51:11.985Z,100203.03
2023-01-04T17:53:43.232Z,100199.56
2023-01-04T17:56:15.446Z,100191.59
2023-01-04T17:58:48.962Z,100204.00
2023-01-04T18:01:21.376Z,100205.84
2023-01-04T18:03:55.942Z,100208.97
2023-01-04T18:06:28.543Z,100203.69
2023-01-04T18:09:02.229Z,100197.72
2023-01-04T18:11:32.517Z,100189.47
2023-01-04T18:14:09.773Z,100198.56
2023-01-04T18:16:57.192Z,100208.47
2023-01-04T18:19:29.899Z,100204.34
2023-01-04T18:22:01.369Z,100203.34
2023-01-04T18:24:36.840Z,100185.16
2023-01-04T18:27:25.555Z,100204.00
2023-01-04T18:29:59.620Z,100201.34
2023-01-04T18:32:29.993Z,100189.78
2023-01-04T18:35:04.493Z,100189.75
2023-01-04T18:37:38.156Z,100184.44
2023-01-04T18:40:09.433Z,100179.84
2023-01-04T18:42:39.701Z,100182.16
2023-01-04T18:45:13.889Z,100176.66
2023-01-04T18:47:47.517Z,100189.25
2023-01-04T18:50:18.063Z,100183.16
2023-01-04T18:52:48.111Z,100189.56
2023-01-04T18:55:18.119Z,100181.78
2023-01-04T18:57:48.081Z,100169.91
2023-01-04T19:00:21.125Z,100151.69
2023-01-04T19:02:51.217Z,100167.09
2023-01-04T19:05:22.688Z,100140.75
2023-01-04T19:07:53.057Z,100149.16
2023-01-04T19:10:23.349Z,100153.47
2023-01-04T19:12:53.347Z,100164.25
2023-01-04T19:15:26.224Z,100169.38
2023-01-04T19:17:57.272Z,100153.47
2023-01-04T19:20:35.783Z,100154.63
2023-01-04T19:23:05.807Z,100160.94
2023-01-04T19:25:36.128Z,100159.44
2023-01-04T19:28:06.321Z,100153.97
2023-01-04T19:30:40.654Z,100150.00
2023-01-04T19:33:11.392Z,100165.38
2023-01-04T19:35:43.663Z,100152.13
2023-01-04T19:38:14.523Z,100150.34
2023-01-04T19:40:44.615Z,100148.53
2023-01-04T19:43:15.994Z,100144.88
2023-01-04T19:45:48.623Z,100147.50
2023-01-04T19:48:18.740Z,100132.63
2023-01-04T19:50:48.872Z,100148.31
2023-01-04T19:53:19.088Z,100148.66
2023-01-04T19:55:49.039Z,100141.72
2023-01-04T19:58:23.846Z,100145.69
2023-01-04T20:00:56.587Z,100129.13
2023-01-04T20:03:28.022Z,100123.50
2023-01-04T20:06:03.194Z,100117.72
2023-01-04T20:08:33.418Z,100121.72
2023-01-04T20:11:04.968Z,100122.72
2023-01-04T20:13:38.876Z,100117.88
2023-01-04T20:16:11.871Z,100105.44
2023-01-04T20:18:57.696Z,100111.91
2023-01-04T20:21:27.698Z,100108.56
2023-01-04T20:23:58.635Z,100101.31
2023-01-04T20:26:30.035Z,100125.47
2023-01-04T20:29:00.303Z,100108.75
2023-01-04T20:31:33.724Z,100112.03
2023-01-04T20:34:03.865Z,100103.47
2023-01-04T20:36:33.998Z,100100.47
2023-01-04T20:39:05.552Z,100105.03
2023-01-04T20:41:35.879Z,100102.56
2023-01-04T20:44:03.680Z,100105.09
2023-01-04T20:46:36.727Z,100097.16
2023-01-04T20:49:06.744Z,100106.47
2023-01-04T20:51:36.749Z,100108.53
2023-01-04T20:54:07.112Z,100105.44
2023-01-04T20:56:38.739Z,100110.91
2023-01-04T20:59:08.858Z,100112.78
2023-01-04T21:01:43.261Z,100102.47
2023-01-04T21:04:15.941Z,100108.06
2023-01-04T21:06:48.879Z,100102.53
2023-01-04T21:09:18.799Z,100088.31
2023-01-04T21:11:48.790Z,100089.31
2023-01-04T21:14:18.724Z,100082.38
2023-01-04T21:16:51.345Z,100114.78
2023-01-04T21:19:22.265Z,100096.50
2023-01-04T21:21:52.451Z,100101.66
2023-01-04T21:24:22.447Z,100102.13
2023-01-04T21:26:52.617Z,100104.22
2023-01-04T21:29:22.631Z,100100.00
2023-01-04T21:31:55.233Z,100100.81
2023-01-04T21:34:27.322Z,100105.59
2023-01-04T21:36:57.424Z,100095.09
2023-01-04T21:39:27.732Z,100083.81
2023-01-04T21:41:57.768Z,100089.22
2023-01-04T21:44:31.541Z,100098.25
2023-01-04T21:47:04.196Z,100112.66
2023-01-04T21:49:34.272Z,100107.19
2023-01-04T21:52:04.306Z,100087.31
2023-01-04T21:54:34.460Z,100087.94
2023-01-04T21:57:04.424Z,100092.88
2023-01-04T21:59:34.569Z,100089.69
2023-01-04T22:02:07.758Z,100102.69
2023-01-04T22:04:37.898Z,100098.75
2023-01-04T22:07:10.842Z,100110.88
2023-01-04T22:09:41.118Z,100114.19
2023-01-04T22:12:11.433Z,100108.53
2023-01-04T22:14:41.363Z,100109.13
2023-01-04T22:17:14.016Z,100100.69
2023-01-04T22:19:43.937Z,100093.56
2023-01-04T22:22:13.930Z,100091.91
2023-01-04T22:24:43.998Z,100090.16
2023-01-04T22:27:13.952Z,100086.88
2023-01-04T22:29:43.931Z,100085.31
2023-01-04T22:32:16.527Z,100095.56
2023-01-04T22:34:46.751Z,100086.56
2023-01-04T22:37:16.796Z,100097.34
2023-01-04T22:40:14.959Z,100097.22
2023-01-04T22:42:45.115Z,100095.03
2023-01-04T22:45:15.127Z,100084.38
2023-01-04T22:47:47.834Z,100079.84
2023-01-04T22:50:18.120Z,100084.38
2023-01-04T22:52:51.090Z,100073.00
2023-01-04T22:55:21.490Z,100065.50
2023-01-04T22:57:52.035Z,100076.94
2023-01-04T23:00:22.000Z,100081.19
2023-01-04T23:02:54.715Z,100080.97
2023-01-04T23:05:24.774Z,100088.38
2023-01-04T23:07:54.753Z,100079.38
2023-01-04T23:10:25.541Z,100091.56
2023-01-04T23:12:55.568Z,100084.19
2023-01-04T23:15:25.535Z,100076.94
2023-01-04T23:17:58.200Z,100074.06
2023-01-04T23:20:28.195Z,100076.53
2023-01-04T23:22:58.299Z,100068.56
2023-01-04T23:25:28.692Z,100058.47
2023-01-04T23:27:58.666Z,100067.09
2023-01-04T23:30:29.768Z,100053.72
2023-01-04T23:33:02.400Z,100063.25
2023-01-04T23:35:32.479Z,100057.75
2023-01-04T23:38:03.680Z,100056.84
2023-01-04T23:40:34.524Z,100067.28
2023-01-04T23:43:04.510Z,100053.38
2023-01-04T23:45:34.535Z,100060.78
2023-01-04T23:48:07.594Z,100059.69
2023-01-04T23:50:37.633Z,100062.69
2023-01-04T23:53:07.632Z,100061.50
2023-01-04T23:55:37.644Z,100064.91
2023-01-04T23:58:22.620Z,100071.66
